Time;durP1;ratioP1;P1;durP2;ratioP2;P2;SDS_P1;SDS_P2;PMS_P1;PMS_P2;Temp;Humidity;BMP_temperature;BMP_pressure;BME280_temperature;BME280_humidity;BME280_pressure;Samples;Min_cycle;Max_cycle;Signal;HPM_P1;HPM_P2
2022/08/09 00:02:18;;;;;;;7.17;3.90;;;;;;;;;;5044720;28;20203;-72
2022/08/09 00:04:45;;;;;;;5.23;3.90;;;;;;;;;;5040653;28;20216;-72
2022/08/09 00:07:12;;;;;;;6.60;3.80;;;;;;;;;;5043233;28;20259;-72
2022/08/09 00:09:40;;;;;;;7.17;4.03;;;;;;;;;;5041259;28;20205;-72
2022/08/09 00:12:07;;;;;;;10.50;4.23;;;;;;;;;;5041869;28;20291;-72
2022/08/09 00:14:35;;;;;;;5.10;3.70;;;;;;;;;;5047470;28;20472;-72
2022/08/09 00:17:04;;;;;;;8.20;4.30;;;;;;;;;;5044925;28;20238;-72
2022/08/09 00:19:31;;;;;;;8.93;4.27;;;;;;;;;;5044717;28;20231;-72
2022/08/09 00:21:58;;;;;;;6.60;4.07;;;;;;;;;;5042647;28;20211;-72
2022/08/09 00:24:25;;;;;;;7.33;4.30;;;;;;;;;;5042092;28;20646;-72
2022/08/09 00:26:53;;;;;;;5.17;3.50;;;;;;;;;;5045084;28;20314;-72
2022/08/09 00:29:20;;;;;;;7.70;4.60;;;;;;;;;;5043923;28;20748;-72
2022/08/09 00:31:47;;;;;;;6.07;3.93;;;;;;;;;;5042585;28;20214;-73
2022/08/09 00:34:16;;;;;;;8.10;3.90;;;;;;;;;;5046603;28;20306;-73
2022/08/09 00:36:43;;;;;;;8.30;4.50;;;;;;;;;;5046831;28;20318;-72
2022/08/09 00:39:10;;;;;;;5.70;4.07;;;;;;;;;;5046950;28;20717;-73
2022/08/09 00:41:37;;;;;;;6.27;4.33;;;;;;;;;;5042325;28;20231;-72
2022/08/09 00:44:05;;;;;;;7.63;5.03;;;;;;;;;;5046093;28;20215;-72
2022/08/09 00:46:32;;;;;;;9.40;5.07;;;;;;;;;;5050455;28;20227;-72
2022/08/09 00:48:59;;;;;;;6.77;4.63;;;;;;;;;;5045471;28;20676;-72
2022/08/09 00:51:28;;;;;;;8.10;4.73;;;;;;;;;;5048668;28;20657;-72
2022/08/09 00:53:55;;;;;;;7.67;4.50;;;;;;;;;;5046103;28;20206;-72
2022/08/09 00:56:22;;;;;;;7.93;5.17;;;;;;;;;;5040635;28;20234;-72
2022/08/09 00:58:50;;;;;;;11.03;4.93;;;;;;;;;;5050671;28;20227;-72
2022/08/09 01:01:20;;;;;;;7.87;4.63;;;;;;;;;;5044360;28;20215;-72
2022/08/09 01:03:50;;;;;;;8.50;4.70;;;;;;;;;;5044936;28;20294;-72
2022/08/09 01:06:21;;;;;;;6.83;4.73;;;;;;;;;;5047238;28;20223;-72
2022/08/09 01:08:54;;;;;;;7.60;4.90;;;;;;;;;;5046784;28;20203;-72
2022/08/09 01:11:24;;;;;;;10.50;5.43;;;;;;;;;;5049685;28;20665;-72
2022/08/09 01:13:54;;;;;;;7.63;5.10;;;;;;;;;;5047464;28;20621;-72
2022/08/09 01:16:23;;;;;;;8.83;4.70;;;;;;;;;;5047672;28;20231;-72
2022/08/09 01:18:50;;;;;;;6.50;4.57;;;;;;;;;;5041854;28;20676;-72
2022/08/09 01:21:21;;;;;;;7.27;4.47;;;;;;;;;;5043621;28;20340;-72
2022/08/09 01:23:57;;;;;;;9.17;5.03;;;;;;;;;;5040570;28;20314;-72
2022/08/09 01:26:40;;;;;;;7.10;4.77;;;;;;;;;;5043808;28;20219;-72
2022/08/09 01:29:10;;;;;;;8.37;4.70;;;;;;;;;;5042218;28;20301;-72
2022/08/09 01:31:38;;;;;;;10.20;4.93;;;;;;;;;;5044904;28;20290;-72
2022/08/09 01:34:06;;;;;;;9.70;5.03;;;;;;;;;;5046747;28;20617;-72
2022/08/09 01:36:34;;;;;;;8.07;4.90;;;;;;;;;;5043933;28;20733;-72
2022/08/09 01:39:02;;;;;;;8.97;4.77;;;;;;;;;;5045040;28;20317;-72
2022/08/09 01:41:30;;;;;;;7.47;4.67;;;;;;;;;;5044829;28;20230;-72
2022/08/09 01:43:59;;;;;;;7.90;4.67;;;;;;;;;;5043792;28;20712;-72
2022/08/09 01:46:28;;;;;;;7.27;4.80;;;;;;;;;;5045432;28;20310;-72
2022/08/09 01:48:56;;;;;;;8.40;5.23;;;;;;;;;;5046319;28;20411;-72
2022/08/09 01:51:24;;;;;;;9.37;5.20;;;;;;;;;;5043176;28;20568;-72
2022/08/09 01:53:52;;;;;;;9.57;5.07;;;;;;;;;;5043351;28;20245;-72
2022/08/09 01:56:20;;;;;;;7.97;4.40;;;;;;;;;;5044906;28;20309;-72
2022/08/09 01:58:49;;;;;;;9.77;4.70;;;;;;;;;;5045336;28;20237;-72
2022/08/09 02:01:18;;;;;;;6.60;4.40;;;;;;;;;;5043331;28;20745;-72
2022/08/09 02:03:46;;;;;;;11.40;5.03;;;;;;;;;;5045343;28;20206;-72
2022/08/09 02:06:14;;;;;;;8.87;5.40;;;;;;;;;;5044204;28;20223;-72
2022/08/09 02:08:43;;;;;;;13.70;5.23;;;;;;;;;;5043773;28;20238;-72
2022/08/09 02:11:10;;;;;;;9.03;4.77;;;;;;;;;;5044964;28;20207;-72
2022/08/09 02:13:38;;;;;;;13.80;6.03;;;;;;;;;;5043388;28;20203;-72
2022/08/09 02:16:06;;;;;;;10.37;5.03;;;;;;;;;;5041435;28;20245;-72
2022/08/09 02:18:36;;;;;;;8.40;4.83;;;;;;;;;;5043276;28;20229;-71
2022/08/09 02:21:06;;;;;;;9.60;5.00;;;;;;;;;;5043462;28;20696;-72
2022/08/09 02:23:36;;;;;;;9.43;4.70;;;;;;;;;;5042345;28;20307;-72
2022/08/09 02:26:03;;;;;;;8.20;5.20;;;;;;;;;;5040137;28;20303;-71
2022/08/09 02:28:34;;;;;;;11.37;4.93;;;;;;;;;;5043657;28;20203;-72
2022/08/09 02:31:03;;;;;;;9.83;4.93;;;;;;;;;;5042127;28;20295;-72
2022/08/09 02:33:34;;;;;;;7.40;4.47;;;;;;;;;;5039216;28;20584;-72
2022/08/09 02:36:03;;;;;;;8.23;5.00;;;;;;;;;;5043802;28;20238;-72
2022/08/09 02:38:31;;;;;;;10.97;4.87;;;;;;;;;;5039428;28;20298;-72
2022/08/09 02:41:02;;;;;;;7.57;4.73;;;;;;;;;;5043365;28;20213;-72
2022/08/09 02:43:32;;;;;;;10.53;4.90;;;;;;;;;;5040675;28;20593;-71
2022/08/09 02:46:00;;;;;;;7.77;5.30;;;;;;;;;;5040734;28;20211;-72
2022/08/09 02:48:29;;;;;;;10.40;5.10;;;;;;;;;;5043981;28;20294;-72
2022/08/09 02:50:57;;;;;;;7.20;4.70;;;;;;;;;;5042603;28;20209;-72
2022/08/09 02:53:27;;;;;;;10.97;5.40;;;;;;;;;;5045319;28;20211;-72
2022/08/09 02:55:55;;;;;;;8.33;4.50;;;;;;;;;;5044503;28;20667;-72
2022/08/09 02:58:24;;;;;;;9.37;4.90;;;;;;;;;;5043995;28;20294;-72
2022/08/09 03:00:53;;;;;;;7.93;5.20;;;;;;;;;;5045591;28;20211;-72
2022/08/09 03:03:21;;;;;;;10.97;5.50;;;;;;;;;;5043876;28;20257;-72
2022/08/09 03:05:49;;;;;;;8.70;5.00;;;;;;;;;;5042993;28;20218;-72
2022/08/09 03:08:17;;;;;;;8.27;4.73;;;;;;;;;;5042753;28;20230;-72
2022/08/09 03:10:46;;;;;;;7.73;4.90;;;;;;;;;;5044565;28;20200;-72
2022/08/09 03:13:15;;;;;;;7.40;4.77;;;;;;;;;;5043115;28;20670;-72
2022/08/09 03:15:42;;;;;;;7.77;5.30;;;;;;;;;;5045489;28;20206;-72
2022/08/09 03:18:10;;;;;;;9.47;4.73;;;;;;;;;;5042749;28;20684;-72
2022/08/09 03:20:38;;;;;;;9.40;4.87;;;;;;;;;;5043393;28;20233;-72
2022/08/09 03:23:06;;;;;;;9.20;5.30;;;;;;;;;;5044806;28;20308;-72
2022/08/09 03:25:33;;;;;;;11.03;4.90;;;;;;;;;;5043641;28;20199;-72
2022/08/09 03:28:04;;;;;;;8.80;4.50;;;;;;;;;;5043756;28;20219;-72
2022/08/09 03:30:32;;;;;;;11.13;5.30;;;;;;;;;;5043128;28;20207;-72
2022/08/09 03:33:00;;;;;;;10.93;4.67;;;;;;;;;;5041548;28;20222;-72
2022/08/09 03:35:27;;;;;;;7.30;4.90;;;;;;;;;;5043486;28;20284;-72
2022/08/09 03:37:54;;;;;;;9.93;4.93;;;;;;;;;;5043299;28;20222;-72
2022/08/09 03:40:21;;;;;;;13.50;5.40;;;;;;;;;;5040702;28;20227;-72
2022/08/09 03:42:48;;;;;;;11.90;4.80;;;;;;;;;;5042354;28;20203;-72
2022/08/09 03:45:17;;;;;;;10.00;5.20;;;;;;;;;;5045581;28;20255;-72
2022/08/09 03:47:44;;;;;;;9.23;5.00;;;;;;;;;;5041669;28;20310;-72
2022/08/09 03:50:11;;;;;;;7.43;5.20;;;;;;;;;;5041836;28;20681;-72
2022/08/09 03:52:39;;;;;;;8.23;4.83;;;;;;;;;;5043286;28;20307;-72
2022/08/09 03:55:08;;;;;;;13.77;5.20;;;;;;;;;;5042994;28;20211;-72
2022/08/09 03:57:35;;;;;;;8.67;5.13;;;;;;;;;;5044996;28;20717;-72
2022/08/09 04:00:03;;;;;;;6.77;5.13;;;;;;;;;;5044870;28;20237;-72
2022/08/09 04:02:32;;;;;;;13.37;5.37;;;;;;;;;;5045624;28;20199;-72
2022/08/09 04:05:00;;;;;;;8.90;5.30;;;;;;;;;;5048660;28;20290;-72
2022/08/09 04:07:28;;;;;;;7.93;5.23;;;;;;;;;;5044574;28;20221;-72
2022/08/09 04:09:55;;;;;;;10.97;5.10;;;;;;;;;;5046344;28;20739;-72
2022/08/09 04:12:34;;;;;;;10.60;5.00;;;;;;;;;;5048112;28;20215;-72
2022/08/09 04:15:01;;;;;;;7.30;5.00;;;;;;;;;;5042617;28;20206;-72
2022/08/09 04:17:28;;;;;;;8.77;5.10;;;;;;;;;;5045018;28;20219;-72
2022/08/09 04:19:57;;;;;;;7.77;5.17;;;;;;;;;;5044387;28;20226;-72
2022/08/09 04:22:24;;;;;;;9.13;5.20;;;;;;;;;;5042974;28;20203;-72
2022/08/09 04:24:51;;;;;;;10.73;5.30;;;;;;;;;;5045675;28;20673;-72
2022/08/09 04:27:19;;;;;;;8.47;5.50;;;;;;;;;;5041740;28;20229;-72
2022/08/09 04:29:46;;;;;;;8.57;4.83;;;;;;;;;;5047011;28;20294;-72
2022/08/09 04:32:13;;;;;;;11.30;4.83;;;;;;;;;;5043071;28;20212;-72
2022/08/09 04:34:40;;;;;;;10.90;4.43;;;;;;;;;;5042954;28;20658;-72
2022/08/09 04:37:08;;;;;;;12.63;4.50;;;;;;;;;;5043156;28;20227;-71
2022/08/09 04:39:36;;;;;;;7.97;4.40;;;;;;;;;;5044583;28;20330;-72
2022/08/09 04:42:03;;;;;;;7.93;4.33;;;;;;;;;;5042708;28;20203;-72
2022/08/09 04:44:30;;;;;;;7.60;3.80;;;;;;;;;;5041742;28;20203;-72
2022/08/09 04:46:57;;;;;;;8.57;4.20;;;;;;;;;;5043019;28;20338;-72
2022/08/09 04:49:25;;;;;;;9.63;4.30;;;;;;;;;;5045813;28;20210;-72
2022/08/09 04:51:52;;;;;;;12.40;4.37;;;;;;;;;;5044703;28;20215;-72
2022/08/09 04:54:20;;;;;;;9.73;4.13;;;;;;;;;;5043603;28;20712;-72
2022/08/09 04:56:47;;;;;;;8.80;3.97;;;;;;;;;;5044679;28;20594;-72
2022/08/09 04:59:14;;;;;;;7.57;3.80;;;;;;;;;;5043698;28;20605;-72
2022/08/09 05:01:42;;;;;;;11.63;3.93;;;;;;;;;;5044046;28;20579;-72
2022/08/09 05:04:09;;;;;;;6.87;4.03;;;;;;;;;;5042988;28;20557;-72
2022/08/09 05:06:37;;;;;;;7.50;3.73;;;;;;;;;;5044968;28;20267;-70
2022/08/09 05:09:04;;;;;;;5.67;3.50;;;;;;;;;;5044007;28;20214;-72
2022/08/09 05:11:32;;;;;;;7.87;3.73;;;;;;;;;;5045602;28;20218;-72
2022/08/09 05:13:59;;;;;;;6.90;3.60;;;;;;;;;;5045433;28;20211;-72
2022/08/09 05:16:26;;;;;;;6.83;3.13;;;;;;;;;;5047106;28;20676;-72
2022/08/09 05:18:54;;;;;;;6.57;3.50;;;;;;;;;;5044576;28;20350;-72
2022/08/09 05:21:21;;;;;;;7.40;3.30;;;;;;;;;;5040066;28;20219;-69
2022/08/09 05:23:48;;;;;;;7.97;3.63;;;;;;;;;;5043177;28;20207;-69
2022/08/09 05:26:15;;;;;;;7.77;3.67;;;;;;;;;;5047014;28;20218;-69
2022/08/09 05:28:44;;;;;;;5.57;3.43;;;;;;;;;;5045222;28;20287;-70
2022/08/09 05:31:11;;;;;;;5.47;3.23;;;;;;;;;;5042968;28;20294;-70
2022/08/09 05:33:39;;;;;;;5.47;3.40;;;;;;;;;;5043456;28;20262;-69
2022/08/09 05:36:06;;;;;;;7.37;3.40;;;;;;;;;;5046545;28;20307;-70
2022/08/09 05:38:33;;;;;;;10.43;3.83;;;;;;;;;;5040339;28;20266;-71
2022/08/09 05:41:00;;;;;;;6.93;3.57;;;;;;;;;;5043918;28;20224;-71
2022/08/09 05:43:28;;;;;;;11.60;3.90;;;;;;;;;;5044333;28;20199;-70
2022/08/09 05:45:56;;;;;;;6.30;3.40;;;;;;;;;;5045266;28;20218;-70
2022/08/09 05:48:23;;;;;;;6.87;3.80;;;;;;;;;;5043227;28;20257;-70
2022/08/09 05:50:51;;;;;;;8.70;3.47;;;;;;;;;;5039488;28;20677;-70
2022/08/09 05:53:18;;;;;;;8.47;3.67;;;;;;;;;;5037493;28;20208;-69
2022/08/09 05:55:45;;;;;;;8.67;3.27;;;;;;;;;;5043536;28;20206;-70
2022/08/09 05:58:12;;;;;;;5.53;3.30;;;;;;;;;;5041538;28;20237;-70
2022/08/09 06:00:39;;;;;;;14.63;3.87;;;;;;;;;;5042621;28;20249;-69
2022/08/09 06:03:08;;;;;;;5.17;3.17;;;;;;;;;;5046122;28;20288;-70
2022/08/09 06:05:35;;;;;;;9.77;3.80;;;;;;;;;;5039276;28;20201;-70
2022/08/09 06:08:02;;;;;;;7.43;3.47;;;;;;;;;;5045330;28;20705;-70
2022/08/09 06:10:37;;;;;;;13.77;3.43;;;;;;;;;;5044428;28;20208;-70
2022/08/09 06:13:05;;;;;;;14.83;3.90;;;;;;;;;;5042668;28;20569;-71
2022/08/09 06:15:32;;;;;;;7.43;3.70;;;;;;;;;;5042902;28;20572;-70
2022/08/09 06:17:59;;;;;;;9.07;3.60;;;;;;;;;;5043119;28;20238;-71
2022/08/09 06:20:27;;;;;;;7.77;3.47;;;;;;;;;;5043701;28;20598;-70
2022/08/09 06:22:55;;;;;;;8.57;3.47;;;;;;;;;;5043510;28;20222;-71
2022/08/09 06:25:22;;;;;;;9.87;3.47;;;;;;;;;;5043813;28;20234;-70
2022/08/09 06:27:49;;;;;;;8.80;3.30;;;;;;;;;;5044348;28;20242;-71
2022/08/09 06:30:16;;;;;;;9.00;3.07;;;;;;;;;;5043333;28;20202;-70
2022/08/09 06:32:43;;;;;;;8.23;2.87;;;;;;;;;;5045437;28;20206;-70
2022/08/09 06:35:11;;;;;;;7.63;3.10;;;;;;;;;;5042322;28;20290;-70
2022/08/09 06:37:39;;;;;;;5.37;2.90;;;;;;;;;;5044988;28;20225;-70
2022/08/09 06:40:07;;;;;;;9.13;3.00;;;;;;;;;;5046264;28;20229;-70
2022/08/09 06:42:34;;;;;;;7.27;2.50;;;;;;;;;;5044281;28;20218;-70
2022/08/09 06:45:01;;;;;;;5.83;2.90;;;;;;;;;;5044992;28;20214;-70
2022/08/09 06:47:28;;;;;;;8.07;2.80;;;;;;;;;;5043456;28;20223;-70
2022/08/09 06:49:55;;;;;;;4.70;2.77;;;;;;;;;;5044123;28;20210;-71
2022/08/09 06:52:23;;;;;;;8.33;2.70;;;;;;;;;;5043389;28;20209;-70
2022/08/09 06:54:51;;;;;;;4.30;2.77;;;;;;;;;;5040209;28;20219;-71
2022/08/09 06:57:18;;;;;;;4.43;2.53;;;;;;;;;;5045364;28;20599;-70
2022/08/09 06:59:46;;;;;;;4.40;2.20;;;;;;;;;;5040262;28;20213;-70
2022/08/09 07:02:13;;;;;;;7.10;2.70;;;;;;;;;;5043045;28;20213;-70
2022/08/09 07:04:40;;;;;;;5.37;2.60;;;;;;;;;;5042295;28;20199;-71
2022/08/09 07:07:07;;;;;;;6.67;2.40;;;;;;;;;;5045379;28;20320;-71
2022/08/09 07:09:34;;;;;;;5.70;2.40;;;;;;;;;;5044383;28;20206;-70
2022/08/09 07:12:03;;;;;;;10.07;2.70;;;;;;;;;;5040561;28;20213;-71
2022/08/09 07:14:30;;;;;;;3.77;2.33;;;;;;;;;;5040722;28;20203;-71
2022/08/09 07:16:57;;;;;;;5.13;2.33;;;;;;;;;;5046073;28;20219;-71
2022/08/09 07:19:24;;;;;;;3.67;2.23;;;;;;;;;;5045086;28;20298;-71
2022/08/09 07:21:52;;;;;;;4.50;2.55;;;;;;;;;;5043171;28;20710;-71
2022/08/09 07:24:19;;;;;;;5.72;2.45;;;;;;;;;;5041666;28;20203;-71
2022/08/09 07:26:46;;;;;;;4.72;2.05;;;;;;;;;;5040532;28;20224;-71
2022/08/09 07:29:14;;;;;;;4.82;2.03;;;;;;;;;;5044891;28;20574;-71
2022/08/09 07:31:41;;;;;;;9.63;2.45;;;;;;;;;;5037556;28;20296;-71
2022/08/09 07:34:09;;;;;;;5.03;2.00;;;;;;;;;;5043351;28;20582;-71
2022/08/09 07:36:36;;;;;;;5.35;2.60;;;;;;;;;;5038904;28;20224;-71
2022/08/09 07:39:04;;;;;;;6.93;2.58;;;;;;;;;;5045736;28;20215;-70
2022/08/09 07:41:31;;;;;;;3.03;2.30;;;;;;;;;;5039296;28;20282;-71
2022/08/09 07:43:58;;;;;;;5.53;2.28;;;;;;;;;;5040758;28;20355;-70
2022/08/09 07:46:27;;;;;;;4.30;2.50;;;;;;;;;;5042544;28;20602;-71
2022/08/09 07:48:54;;;;;;;3.80;2.20;;;;;;;;;;5040708;28;20572;-71
2022/08/09 07:51:21;;;;;;;5.18;2.45;;;;;;;;;;5041187;28;20608;-71
2022/08/09 07:53:49;;;;;;;4.68;2.38;;;;;;;;;;5040706;28;20213;-71
2022/08/09 07:56:16;;;;;;;4.50;1.90;;;;;;;;;;5041743;28;20603;-71
2022/08/09 07:58:43;;;;;;;3.67;2.10;;;;;;;;;;5044434;28;20211;-71
2022/08/09 08:01:10;;;;;;;5.95;2.15;;;;;;;;;;5042246;28;20227;-71
2022/08/09 08:03:39;;;;;;;3.28;2.25;;;;;;;;;;5043062;28;20211;-71
2022/08/09 08:06:06;;;;;;;5.53;2.25;;;;;;;;;;5043549;28;20290;-71
2022/08/09 08:08:33;;;;;;;6.53;2.50;;;;;;;;;;5042320;28;20237;-71
2022/08/09 08:11:01;;;;;;;4.22;2.33;;;;;;;;;;5043556;28;20764;-71
2022/08/09 08:13:28;;;;;;;4.18;2.22;;;;;;;;;;5043999;28;20199;-71
2022/08/09 08:15:55;;;;;;;4.72;2.53;;;;;;;;;;5042234;28;20206;-72
2022/08/09 08:18:22;;;;;;;7.25;2.70;;;;;;;;;;5046527;28;20665;-72
2022/08/09 08:20:51;;;;;;;3.28;2.00;;;;;;;;;;5039559;28;20233;-71
2022/08/09 08:23:19;;;;;;;5.63;2.03;;;;;;;;;;5045716;28;20653;-71
2022/08/09 08:25:47;;;;;;;3.15;1.90;;;;;;;;;;5044688;28;20298;-71
2022/08/09 08:28:15;;;;;;;3.40;2.45;;;;;;;;;;5043665;28;20227;-71
2022/08/09 08:30:42;;;;;;;2.72;1.92;;;;;;;;;;5041915;28;20661;-71
2022/08/09 08:33:09;;;;;;;4.82;1.95;;;;;;;;;;5040105;28;20665;-71
2022/08/09 08:35:36;;;;;;;4.80;2.20;;;;;;;;;;5040104;28;20551;-71
2022/08/09 08:38:05;;;;;;;7.35;2.60;;;;;;;;;;5042950;28;20236;-70
2022/08/09 08:40:32;;;;;;;3.20;2.25;;;;;;;;;;5039273;28;20242;-71
2022/08/09 08:43:00;;;;;;;4.05;2.05;;;;;;;;;;5041945;28;20298;-71
2022/08/09 08:45:29;;;;;;;10.32;2.50;;;;;;;;;;5040822;28;20213;-71
2022/08/09 08:47:57;;;;;;;6.85;2.20;;;;;;;;;;5044072;28;20224;-71
2022/08/09 08:50:24;;;;;;;6.40;2.50;;;;;;;;;;5048268;28;20290;-71
2022/08/09 08:52:52;;;;;;;5.43;2.20;;;;;;;;;;5045584;28;20222;-71
2022/08/09 08:55:20;;;;;;;3.90;2.30;;;;;;;;;;5047259;28;20217;-71
2022/08/09 08:57:48;;;;;;;6.23;2.63;;;;;;;;;;5045893;28;21346;-71
2022/08/09 09:00:15;;;;;;;5.40;2.23;;;;;;;;;;5046588;28;20199;-70
2022/08/09 09:02:43;;;;;;;5.20;2.57;;;;;;;;;;5049162;28;20219;-71
2022/08/09 09:05:12;;;;;;;4.07;2.10;;;;;;;;;;5047064;28;20574;-71
2022/08/09 09:07:39;;;;;;;6.27;2.30;;;;;;;;;;5045702;28;20226;-70
2022/08/09 09:10:08;;;;;;;3.83;2.10;;;;;;;;;;5043713;28;20210;-71
2022/08/09 09:12:37;;;;;;;5.37;2.43;;;;;;;;;;5044307;28;20242;-71
2022/08/09 09:15:05;;;;;;;4.30;2.43;;;;;;;;;;5048575;28;20218;-71
2022/08/09 09:17:32;;;;;;;6.27;2.60;;;;;;;;;;5045617;28;20312;-71
2022/08/09 09:19:59;;;;;;;6.17;3.10;;;;;;;;;;5046660;28;21141;-70
2022/08/09 09:22:26;;;;;;;5.60;2.50;;;;;;;;;;5047629;28;20590;-71
2022/08/09 09:24:54;;;;;;;5.73;2.33;;;;;;;;;;5044733;28;20298;-71
2022/08/09 09:27:24;;;;;;;3.57;2.20;;;;;;;;;;5044621;28;20219;-70
2022/08/09 09:29:53;;;;;;;2.47;2.00;;;;;;;;;;5043710;28;20246;-71
2022/08/09 09:32:21;;;;;;;5.80;1.90;;;;;;;;;;5044133;28;20728;-71
2022/08/09 09:35:02;;;;;;;3.10;2.30;;;;;;;;;;5045013;28;20208;-71
2022/08/09 09:37:30;;;;;;;5.67;2.27;;;;;;;;;;5048313;28;20225;-71
2022/08/09 09:39:57;;;;;;;7.73;1.87;;;;;;;;;;5042572;28;20199;-71
2022/08/09 09:42:25;;;;;;;3.47;2.10;;;;;;;;;;5046388;28;20594;-71
2022/08/09 09:44:58;;;;;;;4.07;2.00;;;;;;;;;;5041850;28;20294;-71
2022/08/09 09:47:26;;;;;;;5.17;2.00;;;;;;;;;;5044201;28;20222;-71
2022/08/09 09:49:54;;;;;;;9.53;2.37;;;;;;;;;;5043881;28;20207;-71
2022/08/09 09:52:22;;;;;;;4.83;2.70;;;;;;;;;;5043332;28;20207;-71
2022/08/09 09:54:49;;;;;;;4.60;1.90;;;;;;;;;;5044344;28;20289;-71
2022/08/09 09:57:17;;;;;;;2.90;2.07;;;;;;;;;;5040520;28;20227;-71
2022/08/09 09:59:45;;;;;;;4.07;2.00;;;;;;;;;;5046724;28;20208;-71
2022/08/09 10:02:14;;;;;;;3.50;2.03;;;;;;;;;;5044493;28;20772;-71
2022/08/09 10:04:42;;;;;;;3.60;1.73;;;;;;;;;;5042767;28;20289;-71
2022/08/09 10:07:22;;;;;;;3.97;1.87;;;;;;;;;;5046529;28;20230;-71
2022/08/09 10:09:50;;;;;;;4.23;2.07;;;;;;;;;;5047811;28;20246;-71
2022/08/09 10:12:24;;;;;;;7.10;1.80;;;;;;;;;;5045863;28;20202;-71
2022/08/09 10:14:52;;;;;;;3.33;1.83;;;;;;;;;;5046759;28;20215;-70
2022/08/09 10:17:21;;;;;;;4.43;2.13;;;;;;;;;;5045286;28;20713;-70
2022/08/09 10:19:49;;;;;;;2.73;1.80;;;;;;;;;;5042628;28;20623;-71
2022/08/09 10:22:16;;;;;;;4.33;1.80;;;;;;;;;;5044472;28;20227;-71
2022/08/09 10:24:43;;;;;;;5.10;1.80;;;;;;;;;;5044749;28;20303;-71
2022/08/09 10:27:11;;;;;;;6.53;1.67;;;;;;;;;;5046369;28;20234;-72
2022/08/09 10:29:39;;;;;;;4.90;1.80;;;;;;;;;;5047170;28;20211;-72
2022/08/09 10:32:06;;;;;;;3.40;2.07;;;;;;;;;;5042847;28;20678;-72
2022/08/09 10:34:36;;;;;;;2.87;2.07;;;;;;;;;;5044096;28;20594;-72
2022/08/09 10:37:03;;;;;;;4.50;2.10;;;;;;;;;;5043019;28;20760;-71
2022/08/09 10:39:31;;;;;;;4.07;1.83;;;;;;;;;;5043194;28;20293;-70
2022/08/09 10:41:58;;;;;;;3.10;2.00;;;;;;;;;;5047706;28;20225;-70
2022/08/09 10:44:29;;;;;;;3.40;1.80;;;;;;;;;;5043608;28;20203;-71
2022/08/09 10:47:14;;;;;;;3.13;1.90;;;;;;;;;;5044493;28;20578;-71
2022/08/09 10:49:47;;;;;;;4.57;1.73;;;;;;;;;;5040570;28;20595;-71
2022/08/09 10:52:23;;;;;;;3.73;1.50;;;;;;;;;;5042150;28;20278;-71
2022/08/09 10:54:52;;;;;;;4.37;1.83;;;;;;;;;;5043017;28;20583;-71
2022/08/09 10:57:22;;;;;;;4.63;1.53;;;;;;;;;;5043538;28;20233;-72
2022/08/09 10:59:49;;;;;;;3.27;1.80;;;;;;;;;;5042974;28;20249;-72
2022/08/09 11:02:17;;;;;;;2.60;1.67;;;;;;;;;;5043804;28;20223;-72
2022/08/09 11:05:05;;;;;;;3.70;1.70;;;;;;;;;;5044610;28;20217;-71
2022/08/09 11:07:32;;;;;;;2.83;1.77;;;;;;;;;;5043757;28;20234;-71
2022/08/09 11:10:00;;;;;;;3.40;1.73;;;;;;;;;;5045005;28;20213;-72
2022/08/09 11:12:27;;;;;;;5.10;1.87;;;;;;;;;;5044389;28;20539;-72
2022/08/09 11:14:56;;;;;;;4.63;1.77;;;;;;;;;;5043554;28;20440;-71
2022/08/09 11:17:40;;;;;;;1.93;1.47;;;;;;;;;;5041914;28;20588;-71
2022/08/09 11:20:09;;;;;;;3.03;1.67;;;;;;;;;;5032341;28;20203;-71
2022/08/09 11:22:55;;;;;;;6.90;1.67;;;;;;;;;;5046313;28;20296;-71
2022/08/09 11:25:23;;;;;;;3.33;1.70;;;;;;;;;;5040666;28;20237;-71
2022/08/09 11:27:51;;;;;;;3.83;1.60;;;;;;;;;;5042163;28;20224;-71
2022/08/09 11:30:31;;;;;;;2.67;1.50;;;;;;;;;;5041218;28;20210;-72
2022/08/09 11:33:01;;;;;;;5.30;1.90;;;;;;;;;;5039116;28;20231;-72
2022/08/09 11:35:32;;;;;;;3.47;1.93;;;;;;;;;;5040549;28;20286;-71
2022/08/09 11:38:00;;;;;;;4.50;1.77;;;;;;;;;;5038492;28;20224;-71
2022/08/09 11:40:29;;;;;;;2.87;1.70;;;;;;;;;;5041130;28;20282;-71
2022/08/09 11:42:57;;;;;;;4.40;1.83;;;;;;;;;;5041796;28;20714;-71
2022/08/09 11:45:27;;;;;;;5.30;1.53;;;;;;;;;;5043350;28;20198;-72
2022/08/09 11:47:56;;;;;;;5.10;1.40;;;;;;;;;;5040743;28;20245;-72
2022/08/09 11:50:23;;;;;;;3.20;1.70;;;;;;;;;;5042534;28;20199;-72
2022/08/09 11:53:09;;;;;;;5.80;1.67;;;;;;;;;;5042589;28;20207;-72
2022/08/09 11:55:38;;;;;;;4.97;1.60;;;;;;;;;;5042860;28;20680;-72
2022/08/09 11:58:27;;;;;;;1.90;1.50;;;;;;;;;;5042829;28;20237;-71
2022/08/09 12:00:55;;;;;;;3.70;1.50;;;;;;;;;;5039501;28;20210;-72
2022/08/09 12:03:23;;;;;;;4.03;1.57;;;;;;;;;;5046383;28;20645;-71
2022/08/09 12:05:51;;;;;;;5.87;1.57;;;;;;;;;;5042213;28;20766;-71
2022/08/09 12:08:19;;;;;;;2.57;1.50;;;;;;;;;;5042982;28;20318;-71
2022/08/09 12:10:48;;;;;;;3.17;1.77;;;;;;;;;;5042795;28;20745;-71
2022/08/09 12:13:28;;;;;;;3.93;1.40;;;;;;;;;;5044866;28;20203;-71
2022/08/09 12:15:59;;;;;;;4.03;1.57;;;;;;;;;;5036050;28;20210;-72
2022/08/09 12:18:27;;;;;;;2.30;1.27;;;;;;;;;;5034963;28;20929;-72
2022/08/09 12:20:54;;;;;;;5.63;1.40;;;;;;;;;;5037382;28;20199;-72
2022/08/09 12:23:21;;;;;;;6.53;1.53;;;;;;;;;;5039485;28;20223;-71
2022/08/09 12:25:51;;;;;;;3.63;1.80;;;;;;;;;;5039054;28;20203;-72
2022/08/09 12:28:19;;;;;;;3.43;1.40;;;;;;;;;;5044320;28;20227;-71
2022/08/09 12:30:47;;;;;;;2.90;1.50;;;;;;;;;;5044555;28;20239;-72
2022/08/09 12:33:15;;;;;;;2.93;1.43;;;;;;;;;;5045757;28;20575;-72
2022/08/09 12:35:43;;;;;;;5.73;1.83;;;;;;;;;;5038974;28;20207;-72
2022/08/09 12:38:17;;;;;;;1.93;1.40;;;;;;;;;;5045112;28;20219;-72
2022/08/09 12:40:44;;;;;;;5.43;1.70;;;;;;;;;;5043601;28;20258;-72
2022/08/09 12:43:13;;;;;;;4.03;1.43;;;;;;;;;;5045570;28;20599;-72
2022/08/09 12:45:40;;;;;;;3.63;1.30;;;;;;;;;;5043606;28;20199;-71
2022/08/09 12:48:10;;;;;;;1.57;1.20;;;;;;;;;;5042753;28;20317;-71
2022/08/09 12:50:38;;;;;;;4.27;1.40;;;;;;;;;;5039156;28;20205;-72
2022/08/09 12:53:05;;;;;;;1.40;1.13;;;;;;;;;;5042642;28;20208;-71
2022/08/09 12:55:33;;;;;;;2.63;1.07;;;;;;;;;;5042840;28;20202;-75
2022/08/09 12:58:12;;;;;;;3.63;1.30;;;;;;;;;;5043451;28;20310;-72
2022/08/09 13:00:43;;;;;;;2.10;1.30;;;;;;;;;;5041620;28;20207;-71
2022/08/09 13:03:10;;;;;;;2.67;1.27;;;;;;;;;;5038298;28;20259;-71
2022/08/09 13:05:42;;;;;;;2.10;1.30;;;;;;;;;;5047097;28;20213;-71
2022/08/09 13:08:14;;;;;;;5.00;1.20;;;;;;;;;;5045762;28;20223;-71
2022/08/09 13:10:45;;;;;;;2.30;1.27;;;;;;;;;;5048398;28;20262;-71
2022/08/09 13:13:12;;;;;;;3.23;1.10;;;;;;;;;;5041417;28;20204;-72
2022/08/09 13:15:54;;;;;;;2.50;1.50;;;;;;;;;;5044944;28;20199;-72
2022/08/09 13:18:22;;;;;;;4.57;1.20;;;;;;;;;;5042011;28;20571;-72
2022/08/09 13:20:49;;;;;;;2.60;1.07;;;;;;;;;;5041296;28;20680;-72
2022/08/09 13:23:16;;;;;;;2.80;1.20;;;;;;;;;;5042537;28;20238;-72
2022/08/09 13:25:44;;;;;;;4.90;1.20;;;;;;;;;;5045906;28;20210;-71
2022/08/09 13:28:14;;;;;;;3.73;1.17;;;;;;;;;;5043095;28;20740;-72
2022/08/09 13:30:41;;;;;;;3.97;1.50;;;;;;;;;;5040542;28;20599;-72
2022/08/09 13:33:10;;;;;;;1.87;1.13;;;;;;;;;;5042551;28;20199;-72
2022/08/09 13:35:37;;;;;;;1.73;1.13;;;;;;;;;;5040035;28;20213;-72
2022/08/09 13:38:04;;;;;;;2.33;1.13;;;;;;;;;;5045453;28;20229;-72
2022/08/09 13:40:31;;;;;;;3.23;1.60;;;;;;;;;;5035509;28;20203;-72
2022/08/09 13:42:58;;;;;;;2.30;1.37;;;;;;;;;;5038326;28;20314;-72
2022/08/09 13:45:25;;;;;;;4.47;1.47;;;;;;;;;;5037582;28;20209;-72
2022/08/09 13:47:53;;;;;;;2.43;1.27;;;;;;;;;;5041886;28;20632;-72
2022/08/09 13:50:21;;;;;;;2.97;1.30;;;;;;;;;;5041396;28;20671;-72
2022/08/09 13:52:48;;;;;;;6.93;1.50;;;;;;;;;;5038222;28;20203;-72
2022/08/09 13:55:16;;;;;;;2.07;1.47;;;;;;;;;;5042640;28;20290;-72
2022/08/09 13:57:46;;;;;;;3.73;1.50;;;;;;;;;;5039279;28;20219;-71
2022/08/09 14:00:14;;;;;;;1.77;1.40;;;;;;;;;;5040914;28;20689;-71
2022/08/09 14:02:42;;;;;;;1.83;1.40;;;;;;;;;;5042414;28;20306;-71
2022/08/09 14:05:10;;;;;;;1.90;1.37;;;;;;;;;;5039998;28;20214;-72
2022/08/09 14:07:38;;;;;;;3.03;1.40;;;;;;;;;;5044540;28;20255;-72
2022/08/09 14:10:06;;;;;;;6.27;1.40;;;;;;;;;;5039778;28;20198;-72
2022/08/09 14:12:34;;;;;;;4.37;1.27;;;;;;;;;;5040954;28;20192;-72
2022/08/09 14:15:03;;;;;;;4.67;1.67;;;;;;;;;;5038522;28;20204;-72
2022/08/09 14:17:30;;;;;;;3.73;1.63;;;;;;;;;;5040828;28;20247;-71
2022/08/09 14:19:58;;;;;;;5.17;1.77;;;;;;;;;;5041431;28;20203;-72
2022/08/09 14:22:25;;;;;;;3.63;1.60;;;;;;;;;;5039969;28;20223;-73
2022/08/09 14:24:53;;;;;;;7.27;1.70;;;;;;;;;;5040034;28;20295;-72
2022/08/09 14:27:20;;;;;;;3.13;1.70;;;;;;;;;;5041695;28;20238;-72
2022/08/09 14:29:48;;;;;;;2.60;1.50;;;;;;;;;;5043857;28;20294;-71
2022/08/09 14:32:15;;;;;;;2.17;1.57;;;;;;;;;;5041545;28;20210;-72
2022/08/09 14:34:42;;;;;;;2.13;1.53;;;;;;;;;;5042716;28;20287;-72
2022/08/09 14:37:09;;;;;;;2.73;1.60;;;;;;;;;;5041294;28;20230;-71
2022/08/09 14:39:38;;;;;;;7.63;1.60;;;;;;;;;;5041162;28;20242;-71
2022/08/09 14:42:07;;;;;;;2.80;1.43;;;;;;;;;;5039802;28;20587;-72
2022/08/09 14:44:34;;;;;;;2.07;1.40;;;;;;;;;;5042349;28;20196;-72
2022/08/09 14:47:01;;;;;;;3.43;1.43;;;;;;;;;;5043966;28;20225;-72
2022/08/09 14:49:28;;;;;;;5.23;1.60;;;;;;;;;;5043313;28;20628;-71